sensor_id;sensor_type;location;lat;lon;timestamp;pressure;altitude;pressure_sealevel;temperature;humidity
76086;BME280;64791;0.000;0.000;2024-03-06T00:01:58;93562.50;;;5.60;69.71
76086;BME280;64791;0.000;0.000;2024-03-06T00:04:24;93564.81;;;5.56;69.47
76086;BME280;64791;0.000;0.000;2024-03-06T00:06:49;93561.94;;;5.49;69.62
76086;BME280;64791;0.000;0.000;2024-03-06T00:09:17;93571.59;;;5.37;70.07
76086;BME280;64791;0.000;0.000;2024-03-06T00:11:44;93571.53;;;5.24;70.62
76086;BME280;64791;0.000;0.000;2024-03-06T00:14:10;93574.97;;;5.11;70.93
76086;BME280;64791;0.000;0.000;2024-03-06T00:16:38;93577.88;;;5.00;71.35
76086;BME280;64791;0.000;0.000;2024-03-06T00:19:03;93579.41;;;4.95;71.56
76086;BME280;64791;0.000;0.000;2024-03-06T00:21:29;93594.41;;;4.89;71.81
76086;BME280;64791;0.000;0.000;2024-03-06T00:23:55;93589.06;;;4.78;71.91
76086;BME280;64791;0.000;0.000;2024-03-06T00:26:21;93588.94;;;4.70;71.88
76086;BME280;64791;0.000;0.000;2024-03-06T00:28:47;93588.78;;;4.63;72.28
76086;BME280;64791;0.000;0.000;2024-03-06T00:31:12;93588.84;;;4.57;72.34
76086;BME280;64791;0.000;0.000;2024-03-06T00:33:38;93586.00;;;4.50;72.56
76086;BME280;64791;0.000;0.000;2024-03-06T00:36:03;93593.50;;;4.43;72.56
76086;BME280;64791;0.000;0.000;2024-03-06T00:38:29;93592.03;;;4.42;72.53
76086;BME280;64791;0.000;0.000;2024-03-06T00:40:55;93588.84;;;4.38;72.24
76086;BME280;64791;0.000;0.000;2024-03-06T00:43:23;93582.25;;;4.28;72.45
76086;BME280;64791;0.000;0.000;2024-03-06T00:45:48;93585.41;;;4.14;72.53
76086;BME280;64791;0.000;0.000;2024-03-06T00:48:14;93587.75;;;4.04;72.30
76086;BME280;64791;0.000;0.000;2024-03-06T00:50:40;93589.19;;;4.11;72.72
76086;BME280;64791;0.000;0.000;2024-03-06T00:53:05;93588.53;;;4.23;71.64
76086;BME280;64791;0.000;0.000;2024-03-06T00:55:31;93585.59;;;4.40;70.92
76086;BME280;64791;0.000;0.000;2024-03-06T00:57:56;93584.94;;;4.53;70.51
76086;BME280;64791;0.000;0.000;2024-03-06T01:00:22;93586.34;;;4.59;69.82
76086;BME280;64791;0.000;0.000;2024-03-06T01:02:47;93582.06;;;4.64;69.48
76086;BME280;64791;0.000;0.000;2024-03-06T01:05:13;93580.44;;;4.74;69.53
76086;BME280;64791;0.000;0.000;2024-03-06T01:07:39;93582.88;;;4.77;69.16
76086;BME280;64791;0.000;0.000;2024-03-06T01:10:05;93580.88;;;4.78;69.10
76086;BME280;64791;0.000;0.000;2024-03-06T01:12:34;93591.31;;;4.79;68.81
76086;BME280;64791;0.000;0.000;2024-03-06T01:14:59;93595.28;;;4.78;69.01
76086;BME280;64791;0.000;0.000;2024-03-06T01:17:25;93596.75;;;4.79;68.63
76086;BME280;64791;0.000;0.000;2024-03-06T01:19:51;93593.28;;;4.79;68.79
76086;BME280;64791;0.000;0.000;2024-03-06T01:22:17;93595.28;;;4.78;68.54
76086;BME280;64791;0.000;0.000;2024-03-06T01:24:43;93596.25;;;4.81;68.49
76086;BME280;64791;0.000;0.000;2024-03-06T01:27:08;93597.00;;;4.81;68.86
76086;BME280;64791;0.000;0.000;2024-03-06T01:29:34;93603.91;;;4.82;68.51
76086;BME280;64791;0.000;0.000;2024-03-06T01:31:59;93602.16;;;4.85;68.47
76086;BME280;64791;0.000;0.000;2024-03-06T01:34:25;93596.72;;;4.85;68.75
76086;BME280;64791;0.000;0.000;2024-03-06T01:36:52;93603.44;;;4.84;68.73
76086;BME280;64791;0.000;0.000;2024-03-06T01:39:18;93600.19;;;4.85;68.63
76086;BME280;64791;0.000;0.000;2024-03-06T01:41:47;93606.88;;;4.84;68.53
76086;BME280;64791;0.000;0.000;2024-03-06T01:44:16;93601.66;;;4.86;68.33
76086;BME280;64791;0.000;0.000;2024-03-06T01:46:42;93597.44;;;4.85;68.60
76086;BME280;64791;0.000;0.000;2024-03-06T01:49:08;93593.97;;;4.85;68.25
76086;BME280;64791;0.000;0.000;2024-03-06T01:51:34;93595.72;;;4.82;68.09
76086;BME280;64791;0.000;0.000;2024-03-06T01:54:00;93598.97;;;4.81;68.19
76086;BME280;64791;0.000;0.000;2024-03-06T01:56:27;93589.78;;;4.84;67.99
76086;BME280;64791;0.000;0.000;2024-03-06T01:58:52;93595.47;;;4.86;68.07
76086;BME280;64791;0.000;0.000;2024-03-06T02:01:19;93595.47;;;4.86;67.91
76086;BME280;64791;0.000;0.000;2024-03-06T02:03:45;93597.44;;;4.85;67.71
76086;BME280;64791;0.000;0.000;2024-03-06T02:06:10;93597.00;;;4.81;67.93
76086;BME280;64791;0.000;0.000;2024-03-06T02:08:37;93602.66;;;4.83;67.56
76086;BME280;64791;0.000;0.000;2024-03-06T02:11:02;93604.16;;;4.84;67.43
76086;BME280;64791;0.000;0.000;2024-03-06T02:13:28;93597.72;;;4.82;67.71
76086;BME280;64791;0.000;0.000;2024-03-06T02:15:54;93596.47;;;4.83;67.64
76086;BME280;64791;0.000;0.000;2024-03-06T02:18:20;93593.50;;;4.81;67.32
76086;BME280;64791;0.000;0.000;2024-03-06T02:20:46;93588.25;;;4.83;67.67
76086;BME280;64791;0.000;0.000;2024-03-06T02:23:12;93592.22;;;4.87;68.34
76086;BME280;64791;0.000;0.000;2024-03-06T02:25:40;93590.13;;;4.93;68.36
76086;BME280;64791;0.000;0.000;2024-03-06T02:28:05;93591.09;;;4.96;68.99
76086;BME280;64791;0.000;0.000;2024-03-06T02:30:31;93599.19;;;5.01;68.90
76086;BME280;64791;0.000;0.000;2024-03-06T02:33:04;93601.34;;;5.08;68.89
76086;BME280;64791;0.000;0.000;2024-03-06T02:35:31;93602.09;;;5.09;68.75
76086;BME280;64791;0.000;0.000;2024-03-06T02:38:01;93609.00;;;5.10;68.44
76086;BME280;64791;0.000;0.000;2024-03-06T02:40:28;93602.31;;;5.11;68.67
76086;BME280;64791;0.000;0.000;2024-03-06T02:42:54;93606.53;;;5.12;68.50
76086;BME280;64791;0.000;0.000;2024-03-06T02:45:19;93605.25;;;5.13;68.75
76086;BME280;64791;0.000;0.000;2024-03-06T02:47:45;93606.00;;;5.13;68.34
76086;BME280;64791;0.000;0.000;2024-03-06T02:50:11;93609.47;;;5.14;68.25
76086;BME280;64791;0.000;0.000;2024-03-06T02:52:36;93606.00;;;5.13;68.19
76086;BME280;64791;0.000;0.000;2024-03-06T02:55:02;93610.72;;;5.13;68.14
76086;BME280;64791;0.000;0.000;2024-03-06T02:57:28;93606.00;;;5.13;68.17
76086;BME280;64791;0.000;0.000;2024-03-06T02:59:55;93609.97;;;5.12;68.34
76086;BME280;64791;0.000;0.000;2024-03-06T03:02:20;93607.25;;;5.12;68.08
76086;BME280;64791;0.000;0.000;2024-03-06T03:04:46;93609.25;;;5.12;67.84
76086;BME280;64791;0.000;0.000;2024-03-06T03:07:12;93609.97;;;5.12;67.83
76086;BME280;64791;0.000;0.000;2024-03-06T03:09:37;93613.22;;;5.11;67.60
76086;BME280;64791;0.000;0.000;2024-03-06T03:12:04;93615.97;;;5.11;67.58
76086;BME280;64791;0.000;0.000;2024-03-06T03:14:30;93607.78;;;5.11;67.66
76086;BME280;64791;0.000;0.000;2024-03-06T03:16:56;93614.47;;;5.10;67.40
76086;BME280;64791;0.000;0.000;2024-03-06T03:19:22;93604.81;;;5.09;67.62
76086;BME280;64791;0.000;0.000;2024-03-06T03:21:47;93611.53;;;5.08;67.75
76086;BME280;64791;0.000;0.000;2024-03-06T03:24:13;93612.50;;;5.10;67.68
76086;BME280;64791;0.000;0.000;2024-03-06T03:26:39;93612.72;;;5.12;67.62
76086;BME280;64791;0.000;0.000;2024-03-06T03:29:04;93608.78;;;5.08;67.80
76086;BME280;64791;0.000;0.000;2024-03-06T03:31:30;93614.19;;;5.13;67.91
76086;BME280;64791;0.000;0.000;2024-03-06T03:33:56;93614.94;;;5.14;67.72
76086;BME280;64791;0.000;0.000;2024-03-06T03:36:22;93621.13;;;5.14;67.97
76086;BME280;64791;0.000;0.000;2024-03-06T03:38:48;93626.09;;;5.16;67.62
76086;BME280;64791;0.000;0.000;2024-03-06T03:41:13;93628.09;;;5.15;67.34
76086;BME280;64791;0.000;0.000;2024-03-06T03:43:40;93628.09;;;5.15;67.50
76086;BME280;64791;0.000;0.000;2024-03-06T03:46:05;93632.06;;;5.14;67.19
76086;BME280;64791;0.000;0.000;2024-03-06T03:48:32;93633.09;;;5.11;67.33
76086;BME280;64791;0.000;0.000;2024-03-06T03:51:01;93633.84;;;5.12;67.25
76086;BME280;64791;0.000;0.000;2024-03-06T03:53:28;93634.34;;;5.10;66.99
76086;BME280;64791;0.000;0.000;2024-03-06T03:55:53;93635.63;;;5.09;67.15
76086;BME280;64791;0.000;0.000;2024-03-06T03:58:19;93637.63;;;5.09;67.09
76086;BME280;64791;0.000;0.000;2024-03-06T04:00:45;93638.13;;;5.07;67.24
76086;BME280;64791;0.000;0.000;2024-03-06T04:03:10;93640.13;;;5.07;67.38
76086;BME280;64791;0.000;0.000;2024-03-06T04:05:36;93642.13;;;5.06;67.41
76086;BME280;64791;0.000;0.000;2024-03-06T04:08:01;93642.13;;;5.06;67.10
76086;BME280;64791;0.000;0.000;2024-03-06T04:10:27;93637.19;;;5.05;67.11
76086;BME280;64791;0.000;0.000;2024-03-06T04:12:53;93634.94;;;5.03;67.23
76086;BME280;64791;0.000;0.000;2024-03-06T04:15:20;93637.66;;;5.03;67.09
76086;BME280;64791;0.000;0.000;2024-03-06T04:17:45;93638.94;;;5.02;66.75
76086;BME280;64791;0.000;0.000;2024-03-06T04:20:11;93644.19;;;5.00;66.77
76086;BME280;64791;0.000;0.000;2024-03-06T04:22:38;93649.44;;;4.98;66.50
76086;BME280;64791;0.000;0.000;2024-03-06T04:25:04;93658.38;;;4.99;66.59
76086;BME280;64791;0.000;0.000;2024-03-06T04:27:30;93654.91;;;4.98;66.95
76086;BME280;64791;0.000;0.000;2024-03-06T04:29:56;93657.09;;;5.00;67.02
76086;BME280;64791;0.000;0.000;2024-03-06T04:32:21;93656.81;;;5.03;67.26
76086;BME280;64791;0.000;0.000;2024-03-06T04:34:47;93661.78;;;5.05;67.36
76086;BME280;64791;0.000;0.000;2024-03-06T04:37:13;93666.19;;;5.08;67.37
76086;BME280;64791;0.000;0.000;2024-03-06T04:39:39;93663.66;;;5.10;67.56
76086;BME280;64791;0.000;0.000;2024-03-06T04:42:06;93666.66;;;5.12;67.34
76086;BME280;64791;0.000;0.000;2024-03-06T04:44:33;93669.88;;;5.10;67.39
76086;BME280;64791;0.000;0.000;2024-03-06T04:46:59;93671.38;;;5.11;67.18
76086;BME280;64791;0.000;0.000;2024-03-06T04:49:25;93667.16;;;5.10;67.21
76086;BME280;64791;0.000;0.000;2024-03-06T04:51:50;93662.97;;;5.09;67.40
76086;BME280;64791;0.000;0.000;2024-03-06T04:54:16;93667.16;;;5.10;67.23
76086;BME280;64791;0.000;0.000;2024-03-06T04:56:41;93667.91;;;5.11;66.91
76086;BME280;64791;0.000;0.000;2024-03-06T04:59:07;93675.88;;;5.09;66.99
76086;BME280;64791;0.000;0.000;2024-03-06T05:01:33;93669.66;;;5.08;66.91
76086;BME280;64791;0.000;0.000;2024-03-06T05:03:58;93677.88;;;5.08;66.68
76086;BME280;64791;0.000;0.000;2024-03-06T05:06:24;93679.13;;;5.07;66.54
76086;BME280;64791;0.000;0.000;2024-03-06T05:08:50;93678.16;;;5.05;66.78
76086;BME280;64791;0.000;0.000;2024-03-06T05:11:15;93687.09;;;5.05;66.69
76086;BME280;64791;0.000;0.000;2024-03-06T05:13:41;93683.84;;;5.07;66.74
76086;BME280;64791;0.000;0.000;2024-03-06T05:16:07;93693.50;;;5.08;66.51
76086;BME280;64791;0.000;0.000;2024-03-06T05:18:36;93693.72;;;5.10;66.46
76086;BME280;64791;0.000;0.000;2024-03-06T05:21:01;93695.13;;;5.16;66.98
76086;BME280;64791;0.000;0.000;2024-03-06T05:23:27;93702.22;;;5.25;66.78
76086;BME280;64791;0.000;0.000;2024-03-06T05:25:53;93700.47;;;5.28;66.94
76086;BME280;64791;0.000;0.000;2024-03-06T05:28:19;93706.97;;;5.25;67.02
76086;BME280;64791;0.000;0.000;2024-03-06T05:30:44;93715.47;;;5.21;67.65
76086;BME280;64791;0.000;0.000;2024-03-06T05:33:10;93708.81;;;5.16;67.95
76086;BME280;64791;0.000;0.000;2024-03-06T05:35:36;93716.28;;;5.16;68.34
76086;BME280;64791;0.000;0.000;2024-03-06T05:38:01;93714.81;;;5.15;68.44
76086;BME280;64791;0.000;0.000;2024-03-06T05:40:28;93713.56;;;5.16;68.61
76086;BME280;64791;0.000;0.000;2024-03-06T05:42:54;93717.97;;;5.19;69.12
76086;BME280;64791;0.000;0.000;2024-03-06T05:45:20;93720.94;;;5.21;69.30
76086;BME280;64791;0.000;0.000;2024-03-06T05:47:45;93719.91;;;5.24;69.35
76086;BME280;64791;0.000;0.000;2024-03-06T05:50:13;93719.59;;;5.28;69.70
76086;BME280;64791;0.000;0.000;2024-03-06T05:52:38;93718.06;;;5.32;69.59
76086;BME280;64791;0.000;0.000;2024-03-06T05:55:04;93715.00;;;5.36;69.81
76086;BME280;64791;0.000;0.000;2024-03-06T05:57:31;93713.47;;;5.40;70.13
76086;BME280;64791;0.000;0.000;2024-03-06T05:59:57;93714.13;;;5.46;69.70
76086;BME280;64791;0.000;0.000;2024-03-06T06:02:23;93714.78;;;5.52;69.82
76086;BME280;64791;0.000;0.000;2024-03-06T06:04:49;93718.19;;;5.58;69.96
76086;BME280;64791;0.000;0.000;2024-03-06T06:07:14;93714.09;;;5.65;69.60
76086;BME280;64791;0.000;0.000;2024-03-06T06:09:41;93715.50;;;5.71;69.50
76086;BME280;64791;0.000;0.000;2024-03-06T06:12:06;93721.09;;;5.79;69.32
76086;BME280;64791;0.000;0.000;2024-03-06T06:14:32;93726.72;;;5.86;69.73
76086;BME280;64791;0.000;0.000;2024-03-06T06:16:58;93730.53;;;5.96;69.35
76086;BME280;64791;0.000;0.000;2024-03-06T06:19:24;93735.09;;;6.07;69.46
76086;BME280;64791;0.000;0.000;2024-03-06T06:21:53;93735.66;;;6.19;69.14
76086;BME280;64791;0.000;0.000;2024-03-06T06:24:19;93733.66;;;6.32;69.31
76086;BME280;64791;0.000;0.000;2024-03-06T06:26:45;93732.97;;;6.45;68.66
76086;BME280;64791;0.000;0.000;2024-03-06T06:29:11;93733.19;;;6.60;68.92
76086;BME280;64791;0.000;0.000;2024-03-06T06:31:36;93739.63;;;6.75;68.12
76086;BME280;64791;0.000;0.000;2024-03-06T06:34:02;93745.09;;;6.89;68.22
76086;BME280;64791;0.000;0.000;2024-03-06T06:36:27;93746.38;;;7.01;68.60
76086;BME280;64791;0.000;0.000;2024-03-06T06:38:53;93747.50;;;7.18;69.08
76086;BME280;64791;0.000;0.000;2024-03-06T06:41:19;93734.66;;;7.39;68.92
76086;BME280;64791;0.000;0.000;2024-03-06T06:43:45;93732.97;;;7.70;68.17
76086;BME280;64791;0.000;0.000;2024-03-06T06:46:11;93731.47;;;8.03;68.22
76086;BME280;64791;0.000;0.000;2024-03-06T06:48:36;93736.50;;;8.33;68.38
76086;BME280;64791;0.000;0.000;2024-03-06T06:51:02;93733.59;;;8.59;68.67
76086;BME280;64791;0.000;0.000;2024-03-06T06:53:30;93729.91;;;8.77;68.46
76086;BME280;64791;0.000;0.000;2024-03-06T06:55:56;93734.75;;;8.91;68.48
76086;BME280;64791;0.000;0.000;2024-03-06T06:58:22;93740.16;;;9.04;68.91
76086;BME280;64791;0.000;0.000;2024-03-06T07:00:48;93740.59;;;9.16;68.43
76086;BME280;64791;0.000;0.000;2024-03-06T07:03:14;93740.84;;;9.26;68.01
76086;BME280;64791;0.000;0.000;2024-03-06T07:05:39;93735.53;;;9.35;68.21
76086;BME280;64791;0.000;0.000;2024-03-06T07:08:07;93742.56;;;9.44;68.25
76086;BME280;64791;0.000;0.000;2024-03-06T07:10:33;93744.81;;;9.53;68.28
76086;BME280;64791;0.000;0.000;2024-03-06T07:13:01;93745.41;;;9.66;68.15
76086;BME280;64791;0.000;0.000;2024-03-06T07:15:28;93739.91;;;9.74;67.76
76086;BME280;64791;0.000;0.000;2024-03-06T07:17:54;93733.53;;;9.87;67.51
76086;BME280;64791;0.000;0.000;2024-03-06T07:20:19;93731.22;;;10.06;67.55
76086;BME280;64791;0.000;0.000;2024-03-06T07:22:45;93741.88;;;10.24;67.10
76086;BME280;64791;0.000;0.000;2024-03-06T07:25:11;93743.75;;;10.52;66.62
76086;BME280;64791;0.000;0.000;2024-03-06T07:27:36;93745.41;;;10.78;65.93
76086;BME280;64791;0.000;0.000;2024-03-06T07:30:02;93737.31;;;11.02;65.25
76086;BME280;64791;0.000;0.000;2024-03-06T07:32:28;93740.00;;;11.25;65.30
76086;BME280;64791;0.000;0.000;2024-03-06T07:34:53;93734.78;;;11.52;64.74
76086;BME280;64791;0.000;0.000;2024-03-06T07:37:19;93735.44;;;11.75;63.91
76086;BME280;64791;0.000;0.000;2024-03-06T07:39:45;93743.22;;;12.01;63.91
76086;BME280;64791;0.000;0.000;2024-03-06T07:42:11;93737.59;;;12.24;63.40
76086;BME280;64791;0.000;0.000;2024-03-06T07:44:37;93725.84;;;12.40;63.09
76086;BME280;64791;0.000;0.000;2024-03-06T07:47:02;93735.25;;;12.69;62.93
76086;BME280;64791;0.000;0.000;2024-03-06T07:49:29;93733.13;;;13.02;62.29
76086;BME280;64791;0.000;0.000;2024-03-06T07:51:54;93733.34;;;13.38;61.89
76086;BME280;64791;0.000;0.000;2024-03-06T07:54:20;93729.38;;;13.76;61.16
76086;BME280;64791;0.000;0.000;2024-03-06T07:56:46;93736.94;;;14.09;60.96
76086;BME280;64791;0.000;0.000;2024-03-06T07:59:12;93737.00;;;14.46;59.82
76086;BME280;64791;0.000;0.000;2024-03-06T08:01:39;93738.44;;;14.83;59.31
76086;BME280;64791;0.000;0.000;2024-03-06T08:04:05;93735.59;;;15.09;58.72
76086;BME280;64791;0.000;0.000;2024-03-06T08:06:30;93740.34;;;15.36;58.03
76086;BME280;64791;0.000;0.000;2024-03-06T08:08:58;93742.16;;;15.60;57.32
76086;BME280;64791;0.000;0.000;2024-03-06T08:11:24;93738.19;;;15.82;57.72
76086;BME280;64791;0.000;0.000;2024-03-06T08:13:50;93745.06;;;15.91;57.23
76086;BME280;64791;0.000;0.000;2024-03-06T08:16:15;93740.06;;;15.99;57.16
76086;BME280;64791;0.000;0.000;2024-03-06T08:18:42;93745.34;;;16.04;57.55
76086;BME280;64791;0.000;0.000;2024-03-06T08:21:08;93738.00;;;16.18;57.00
76086;BME280;64791;0.000;0.000;2024-03-06T08:23:33;93735.47;;;16.41;56.63
76086;BME280;64791;0.000;0.000;2024-03-06T08:25:59;93737.16;;;16.66;56.80
76086;BME280;64791;0.000;0.000;2024-03-06T08:28:25;93732.78;;;16.93;56.18
76086;BME280;64791;0.000;0.000;2024-03-06T08:30:52;93723.22;;;17.27;55.58
76086;BME280;64791;0.000;0.000;2024-03-06T08:33:17;93726.84;;;17.60;55.46
76086;BME280;64791;0.000;0.000;2024-03-06T08:35:43;93720.03;;;17.84;55.21
76086;BME280;64791;0.000;0.000;2024-03-06T08:38:09;93722.84;;;18.17;54.89
76086;BME280;64791;0.000;0.000;2024-03-06T08:40:34;93714.28;;;18.48;54.42
76086;BME280;64791;0.000;0.000;2024-03-06T08:43:00;93709.97;;;18.79;54.05
76086;BME280;64791;0.000;0.000;2024-03-06T08:45:25;93716.19;;;19.01;53.56
76086;BME280;64791;0.000;0.000;2024-03-06T08:47:51;93727.56;;;19.17;53.31
76086;BME280;64791;0.000;0.000;2024-03-06T08:50:19;93721.16;;;19.26;53.16
76086;BME280;64791;0.000;0.000;2024-03-06T08:52:44;93724.91;;;19.42;52.82
76086;BME280;64791;0.000;0.000;2024-03-06T08:55:11;93732.28;;;19.60;52.80
76086;BME280;64791;0.000;0.000;2024-03-06T08:57:36;93727.97;;;19.83;52.22
76086;BME280;64791;0.000;0.000;2024-03-06T09:00:03;93732.41;;;19.99;51.81
76086;BME280;64791;0.000;0.000;2024-03-06T09:02:29;93730.78;;;20.19;51.35
76086;BME280;64791;0.000;0.000;2024-03-06T09:04:55;93726.06;;;20.35;50.46
76086;BME280;64791;0.000;0.000;2024-03-06T09:07:21;93733.38;;;20.54;50.56
76086;BME280;64791;0.000;0.000;2024-03-06T09:09:49;93740.63;;;20.71;50.07
76086;BME280;64791;0.000;0.000;2024-03-06T09:12:15;93740.66;;;20.84;49.62
76086;BME280;64791;0.000;0.000;2024-03-06T09:14:41;93735.94;;;21.00;49.65
76086;BME280;64791;0.000;0.000;2024-03-06T09:17:06;93732.19;;;21.23;49.25
76086;BME280;64791;0.000;0.000;2024-03-06T09:19:34;93729.81;;;21.45;47.71
76086;BME280;64791;0.000;0.000;2024-03-06T09:22:00;93724.63;;;21.66;48.14
76086;BME280;64791;0.000;0.000;2024-03-06T09:24:26;93725.94;;;21.79;48.35
76086;BME280;64791;0.000;0.000;2024-03-06T09:26:53;93728.72;;;22.06;46.79
76086;BME280;64791;0.000;0.000;2024-03-06T09:29:19;93721.59;;;22.19;47.62
76086;BME280;64791;0.000;0.000;2024-03-06T09:31:46;93720.59;;;22.41;47.01
76086;BME280;64791;0.000;0.000;2024-03-06T09:34:13;93719.94;;;22.43;46.30
76086;BME280;64791;0.000;0.000;2024-03-06T09:36:39;93717.31;;;22.18;44.83
76086;BME280;64791;0.000;0.000;2024-03-06T09:39:04;93714.25;;;21.98;45.54
76086;BME280;64791;0.000;0.000;2024-03-06T09:41:30;93714.44;;;21.73;45.92
76086;BME280;64791;0.000;0.000;2024-03-06T09:43:56;93708.19;;;21.47;44.64
76086;BME280;64791;0.000;0.000;2024-03-06T09:46:22;93708.41;;;21.24;44.01
76086;BME280;64791;0.000;0.000;2024-03-06T09:48:48;93715.03;;;21.03;45.68
76086;BME280;64791;0.000;0.000;2024-03-06T09:51:14;93713.28;;;20.96;45.67
76086;BME280;64791;0.000;0.000;2024-03-06T09:53:41;93706.94;;;20.96;45.49
76086;BME280;64791;0.000;0.000;2024-03-06T09:56:08;93706.63;;;20.90;46.17
76086;BME280;64791;0.000;0.000;2024-03-06T09:58:35;93701.63;;;20.88;45.53
76086;BME280;64791;0.000;0.000;2024-03-06T10:01:01;93706.09;;;20.93;45.66
76086;BME280;64791;0.000;0.000;2024-03-06T10:03:29;93700.81;;;20.86;46.34
76086;BME280;64791;0.000;0.000;2024-03-06T10:05:55;93711.97;;;20.72;48.30
76086;BME280;64791;0.000;0.000;2024-03-06T10:08:21;93707.78;;;20.98;47.15
76086;BME280;64791;0.000;0.000;2024-03-06T10:10:47;93705.91;;;21.44;47.14
76086;BME280;64791;0.000;0.000;2024-03-06T10:13:16;93696.59;;;21.96;45.36
76086;BME280;64791;0.000;0.000;2024-03-06T10:15:42;93688.22;;;22.40;44.12
76086;BME280;64791;0.000;0.000;2024-03-06T10:18:22;93695.47;;;23.06;42.78
76086;BME280;64791;0.000;0.000;2024-03-06T10:20:51;93686.91;;;23.35;42.18
76086;BME280;64791;0.000;0.000;2024-03-06T10:23:18;93691.00;;;23.32;41.65
76086;BME280;64791;0.000;0.000;2024-03-06T10:25:43;93686.31;;;23.54;42.63
76086;BME280;64791;0.000;0.000;2024-03-06T10:28:11;93691.38;;;23.58;41.52
76086;BME280;64791;0.000;0.000;2024-03-06T10:30:37;93687.09;;;23.39;42.09
76086;BME280;64791;0.000;0.000;2024-03-06T10:33:03;93680.53;;;23.50;40.68
76086;BME280;64791;0.000;0.000;2024-03-06T10:35:34;93670.56;;;23.80;40.83
76086;BME280;64791;0.000;0.000;2024-03-06T10:38:03;93663.56;;;23.99;40.74
76086;BME280;64791;0.000;0.000;2024-03-06T10:40:32;93670.50;;;24.31;39.76
76086;BME280;64791;0.000;0.000;2024-03-06T10:42:59;93671.63;;;24.59;38.93
76086;BME280;64791;0.000;0.000;2024-03-06T10:45:30;93666.03;;;24.79;37.67
76086;BME280;64791;0.000;0.000;2024-03-06T10:47:58;93654.59;;;24.95;36.27
76086;BME280;64791;0.000;0.000;2024-03-06T10:50:24;93658.25;;;25.17;36.90
76086;BME280;64791;0.000;0.000;2024-03-06T10:52:52;93654.78;;;25.38;35.40
76086;BME280;64791;0.000;0.000;2024-03-06T10:55:18;93649.56;;;25.50;35.35
76086;BME280;64791;0.000;0.000;2024-03-06T10:57:44;93646.22;;;25.55;34.70
76086;BME280;64791;0.000;0.000;2024-03-06T11:00:12;93651.19;;;25.77;35.78
76086;BME280;64791;0.000;0.000;2024-03-06T11:02:43;93640.22;;;25.87;33.85
76086;BME280;64791;0.000;0.000;2024-03-06T11:05:11;93636.03;;;25.88;34.95
76086;BME280;64791;0.000;0.000;2024-03-06T11:07:36;93629.50;;;26.05;34.18
76086;BME280;64791;0.000;0.000;2024-03-06T11:10:02;93632.06;;;26.18;33.26
76086;BME280;64791;0.000;0.000;2024-03-06T11:12:37;93622.25;;;26.21;32.21
76086;BME280;64791;0.000;0.000;2024-03-06T11:17:36;93616.16;;;26.29;32.24
76086;BME280;64791;0.000;0.000;2024-03-06T11:28:04;93604.19;;;26.78;34.29
76086;BME280;64791;0.000;0.000;2024-03-06T11:30:30;93598.66;;;26.82;33.91
76086;BME280;64791;0.000;0.000;2024-03-06T11:32:59;93601.06;;;26.91;33.55
76086;BME280;64791;0.000;0.000;2024-03-06T11:35:28;93593.75;;;27.08;33.13
76086;BME280;64791;0.000;0.000;2024-03-06T11:37:54;93594.81;;;27.21;32.78
76086;BME280;64791;0.000;0.000;2024-03-06T11:40:23;93591.47;;;27.28;32.31
76086;BME280;64791;0.000;0.000;2024-03-06T11:42:49;93590.28;;;27.37;32.33
76086;BME280;64791;0.000;0.000;2024-03-06T11:45:16;93580.50;;;27.42;29.73
76086;BME280;64791;0.000;0.000;2024-03-06T11:50:44;93574.16;;;27.44;28.42
76086;BME280;64791;0.000;0.000;2024-03-06T11:53:11;93581.75;;;27.35;31.34
76086;BME280;64791;0.000;0.000;2024-03-06T11:55:38;93576.22;;;27.41;31.64
76086;BME280;64791;0.000;0.000;2024-03-06T11:58:04;93578.41;;;27.43;32.52
76086;BME280;64791;0.000;0.000;2024-03-06T12:00:30;93572.44;;;27.58;31.84
76086;BME280;64791;0.000;0.000;2024-03-06T12:02:56;93571.41;;;27.73;30.51
76086;BME280;64791;0.000;0.000;2024-03-06T12:05:24;93562.22;;;27.73;28.80
76086;BME280;64791;0.000;0.000;2024-03-06T12:07:52;93569.31;;;27.74;28.41
76086;BME280;64791;0.000;0.000;2024-03-06T12:10:18;93560.03;;;27.71;29.27
76086;BME280;64791;0.000;0.000;2024-03-06T12:12:44;93555.03;;;27.70;29.90
76086;BME280;64791;0.000;0.000;2024-03-06T12:15:10;93559.97;;;27.69;31.37
76086;BME280;64791;0.000;0.000;2024-03-06T12:17:43;93557.03;;;27.65;32.11
76086;BME280;64791;0.000;0.000;2024-03-06T12:20:14;93554.25;;;27.67;31.07
76086;BME280;64791;0.000;0.000;2024-03-06T12:22:43;93555.91;;;27.76;31.70
76086;BME280;64791;0.000;0.000;2024-03-06T12:25:09;93545.50;;;27.57;30.42
76086;BME280;64791;0.000;0.000;2024-03-06T12:27:34;93543.88;;;27.23;27.63
76086;BME280;64791;0.000;0.000;2024-03-06T12:30:00;93543.91;;;26.73;27.80
76086;BME280;64791;0.000;0.000;2024-03-06T12:32:26;93552.69;;;26.12;29.81
76086;BME280;64791;0.000;0.000;2024-03-06T12:34:58;93542.84;;;25.48;29.64
76086;BME280;64791;0.000;0.000;2024-03-06T12:37:28;93543.31;;;25.00;30.27
76086;BME280;64791;0.000;0.000;2024-03-06T12:39:56;93552.13;;;24.51;30.43
76086;BME280;64791;0.000;0.000;2024-03-06T12:42:22;93543.34;;;24.05;30.73
76086;BME280;64791;0.000;0.000;2024-03-06T12:44:49;93551.06;;;23.70;31.48
76086;BME280;64791;0.000;0.000;2024-03-06T12:47:15;93542.13;;;23.40;31.93
76086;BME280;64791;0.000;0.000;2024-03-06T12:49:41;93540.34;;;23.13;32.27
76086;BME280;64791;0.000;0.000;2024-03-06T12:52:06;93545.81;;;22.94;33.32
76086;BME280;64791;0.000;0.000;2024-03-06T12:54:34;93548.66;;;22.78;34.15
76086;BME280;64791;0.000;0.000;2024-03-06T12:57:00;93545.59;;;22.56;34.79
76086;BME280;64791;0.000;0.000;2024-03-06T12:59:25;93548.66;;;22.31;36.23
76086;BME280;64791;0.000;0.000;2024-03-06T13:01:51;93525.91;;;22.25;37.87
76086;BME280;64791;0.000;0.000;2024-03-06T13:04:17;93547.81;;;21.98;35.98
76086;BME280;64791;0.000;0.000;2024-03-06T13:06:43;93543.88;;;21.73;34.73
76086;BME280;64791;0.000;0.000;2024-03-06T13:09:10;93538.47;;;21.48;36.45
76086;BME280;64791;0.000;0.000;2024-03-06T13:11:36;93553.56;;;21.28;37.63
76086;BME280;64791;0.000;0.000;2024-03-06T13:14:02;93547.38;;;21.16;36.22
76086;BME280;64791;0.000;0.000;2024-03-06T13:16:28;93547.88;;;21.12;36.77
76086;BME280;64791;0.000;0.000;2024-03-06T13:18:54;93543.97;;;21.03;38.10
76086;BME280;64791;0.000;0.000;2024-03-06T13:21:22;93548.25;;;20.91;38.20
76086;BME280;64791;0.000;0.000;2024-03-06T13:23:47;93543.44;;;20.80;38.31
76086;BME280;64791;0.000;0.000;2024-03-06T13:26:13;93548.66;;;20.72;38.90